Union Dale, Pennsylvania
Current Conditions -  °F | °C
As of 6:54 AM on Saturday 20 Dec 2014 (Local Time) from KAVP Reporting Station
Overcast Overcast  
Wind Chill: 30°   Ceiling: 2100
Heat Index: 30°   Visibility: 10mi
Dew Point: 21°   Wind: 3mph
Humidity: 69%   Direction: 350°N
Pressure: 30.22"   Gusts: NA
Location:  41.72°N, 75.49°W
Report Text: KAVP 201154Z AUTO 35003KT 10SM OVC021 M01/M06 A3022 RMK AO2 SLP243 T10111061 11011 21017 51013
Loading
Personal Weather Stations






























Interactive Weather Map New forecast layout! Learn more

10-Day Weather Forecast

Advertisements
Track Severe Weather on mobile